Time;durP1;ratioP1;P1;durP2;ratioP2;P2;SDS_P1;SDS_P2;PMS_P1;PMS_P2;Temp;Humidity;BMP_temperature;BMP_pressure;BME280_temperature;BME280_humidity;BME280_pressure;Samples;Min_cycle;Max_cycle;Signal;HPM_P1;HPM_P2
2022/01/15 00:00:55;;;;;;;80.72;41.90;;;-2.20;99.90;;;;;;5087339;28;20030;-84
2022/01/15 00:03:20;;;;;;;85.30;42.80;;;-2.20;99.90;;;;;;5091977;28;20080;-84
2022/01/15 00:05:46;;;;;;;90.07;42.40;;;-2.20;99.90;;;;;;5091283;28;20855;-83
2022/01/15 00:08:12;;;;;;;81.68;39.97;;;-2.10;99.90;;;;;;5090846;28;20031;-84
2022/01/15 00:10:38;;;;;;;78.25;38.08;;;-2.10;99.90;;;;;;5090913;28;20381;-83
2022/01/15 00:13:07;;;;;;;82.80;41.28;;;-2.20;99.90;;;;;;5091361;28;20059;-84
2022/01/15 00:15:41;;;;;;;82.03;40.58;;;-2.20;99.90;;;;;;5091112;28;20073;-84
2022/01/15 00:18:15;;;;;;;72.78;39.20;;;-2.10;99.90;;;;;;5089796;28;20028;-84
2022/01/15 00:20:41;;;;;;;81.30;39.92;;;-2.20;99.90;;;;;;5086354;28;20127;-83
2022/01/15 00:23:07;;;;;;;82.18;39.17;;;-2.20;99.90;;;;;;5086790;28;20244;-83
2022/01/15 00:25:33;;;;;;;77.00;39.85;;;-2.20;99.90;;;;;;5090524;28;20401;-84
2022/01/15 00:28:01;;;;;;;78.35;38.03;;;-2.20;99.90;;;;;;5090557;28;20488;-85
2022/01/15 00:30:27;;;;;;;73.47;38.95;;;-2.20;99.90;;;;;;5089981;28;20032;-75
2022/01/15 00:32:54;;;;;;;76.20;39.20;;;-2.10;99.90;;;;;;5073063;28;20120;-84
2022/01/15 00:35:21;;;;;;;77.35;38.15;;;-2.00;99.90;;;;;;5091565;28;20024;-85
2022/01/15 00:37:47;;;;;;;71.72;37.10;;;-1.90;99.90;;;;;;5090148;28;20032;-82
2022/01/15 00:40:18;;;;;;;63.38;33.05;;;-2.00;99.90;;;;;;5088323;28;20499;-83
2022/01/15 00:42:44;;;;;;;65.88;35.00;;;-2.20;99.90;;;;;;5093657;28;20024;-84
2022/01/15 00:45:17;;;;;;;67.97;35.80;;;-2.30;99.90;;;;;;5095403;28;20024;-84
2022/01/15 00:47:42;;;;;;;63.35;35.55;;;-2.30;99.90;;;;;;5092667;28;20035;-84
2022/01/15 00:50:09;;;;;;;69.57;36.65;;;-2.40;99.90;;;;;;5086606;28;20052;-84
2022/01/15 00:52:35;;;;;;;64.13;35.22;;;-2.50;99.90;;;;;;5071136;28;20116;-83
2022/01/15 00:55:02;;;;;;;70.32;35.25;;;-2.50;99.90;;;;;;5072136;28;20039;-83
2022/01/15 00:57:27;;;;;;;64.88;34.20;;;-2.50;99.90;;;;;;5071306;28;20048;-81
2022/01/15 00:59:53;;;;;;;70.13;35.53;;;-2.50;99.90;;;;;;5073058;28;20071;-83
2022/01/15 01:02:19;;;;;;;67.90;32.70;;;;;;;;;;5092239;28;20073;-84
2022/01/15 01:04:45;;;;;;;58.42;31.60;;;-2.40;99.90;;;;;;5091843;28;20019;-84
2022/01/15 01:07:11;;;;;;;61.67;32.05;;;-2.60;99.90;;;;;;5087792;28;20025;-84
2022/01/15 01:09:57;;;;;;;61.33;33.65;;;-2.20;99.90;;;;;;5071346;28;20036;-85
2022/01/15 01:23:10;;;;;;;65.90;34.50;;;-2.60;99.90;;;;;;5073815;28;20028;-85
2022/01/15 01:25:43;;;;;;;76.65;38.78;;;-2.50;99.90;;;;;;5090843;28;20108;-85
2022/01/15 01:28:14;;;;;;;69.47;37.28;;;-2.40;99.90;;;;;;5091054;28;20488;-85
2022/01/15 01:30:50;;;;;;;68.63;38.20;;;-2.30;99.90;;;;;;5084400;28;20060;-85
2022/01/15 01:33:30;;;;;;;73.70;37.80;;;-2.30;99.90;;;;;;5071973;28;20363;-85
2022/01/15 01:38:39;;;;;;;61.15;32.83;;;-2.20;99.90;;;;;;5070966;28;19908;-86
2022/01/15 01:41:07;;;;;;;66.85;35.05;;;-2.30;99.90;;;;;;5081311;28;20028;-86
2022/01/15 01:46:33;;;;;;;64.07;32.90;;;-2.40;99.90;;;;;;5093811;28;20028;-85
2022/01/15 01:49:01;;;;;;;62.25;31.52;;;-2.50;99.90;;;;;;5077188;28;20044;-88
2022/01/15 01:51:34;;;;;;;64.68;32.08;;;-2.60;99.90;;;;;;5072893;28;20032;-75
2022/01/15 01:54:05;;;;;;;70.93;34.08;;;-2.70;99.90;;;;;;5072426;28;20024;-87
2022/01/15 01:56:31;;;;;;;68.05;36.45;;;-2.70;99.90;;;;;;5071030;28;20044;-84
2022/01/15 01:58:58;;;;;;;68.03;35.33;;;-2.70;99.90;;;;;;5090368;28;20070;-86
2022/01/15 02:01:24;;;;;;;68.25;34.35;;;-2.80;99.90;;;;;;5091807;28;20039;-87
2022/01/15 02:03:50;;;;;;;68.82;35.08;;;-2.80;99.90;;;;;;5090912;28;20035;-86
2022/01/15 02:06:17;;;;;;;66.40;33.90;;;-2.90;99.90;;;;;;5095247;28;20031;-86
2022/01/15 02:08:44;;;;;;;72.47;34.58;;;-3.00;99.90;;;;;;5077833;28;20025;-87
2022/01/15 02:11:10;;;;;;;70.20;34.22;;;-3.00;99.90;;;;;;5083933;28;20063;-87
2022/01/15 02:13:40;;;;;;;60.45;30.85;;;-3.00;99.90;;;;;;5094741;28;20436;-88
2022/01/15 02:16:06;;;;;;;61.28;31.67;;;-2.90;99.90;;;;;;5089066;28;20362;-87
2022/01/15 02:18:33;;;;;;;65.22;33.08;;;-3.10;99.90;;;;;;5086739;28;20043;-85
2022/01/15 02:23:31;;;;;;;64.07;32.40;;;-3.10;99.90;;;;;;5077360;28;20036;-86
2022/01/15 02:23:47;;;;;;;61.88;31.27;;;-3.10;99.90;;;;;;5094097;28;20498;-85
2022/01/15 02:26:30;;;;;;;65.18;34.30;;;-3.10;99.90;;;;;;5095170;28;20077;-86
2022/01/15 02:28:59;;;;;;;75.00;36.83;;;-3.00;99.90;;;;;;5061149;28;20470;-86
2022/01/15 02:31:26;;;;;;;66.72;34.55;;;-3.00;99.90;;;;;;5075099;28;20042;-86
2022/01/15 02:33:55;;;;;;;67.35;34.40;;;-3.00;99.90;;;;;;5074105;28;20055;-86
2022/01/15 02:36:28;;;;;;;62.35;31.63;;;-3.00;99.90;;;;;;5085377;28;20380;-86
2022/01/15 02:38:54;;;;;;;69.93;33.28;;;-3.00;99.90;;;;;;5079273;28;20029;-86
2022/01/15 02:41:34;;;;;;;63.80;31.95;;;-3.00;99.90;;;;;;5057078;28;20063;-86
2022/01/15 02:44:01;;;;;;;57.15;30.92;;;-3.00;99.90;;;;;;5074194;28;20032;-86
2022/01/15 02:48:59;;;;;;;66.68;33.00;;;-3.20;99.90;;;;;;5081974;28;20056;-86
2022/01/15 02:51:27;;;;;;;66.63;34.05;;;-3.30;99.90;;;;;;5074621;28;20496;-86
2022/01/15 02:53:56;;;;;;;60.10;31.35;;;-3.20;99.90;;;;;;5073665;28;20390;-86
2022/01/15 02:56:33;;;;;;;62.47;31.33;;;-3.30;99.90;;;;;;5084281;28;20054;-85
2022/01/15 02:58:59;;;;;;;60.22;30.50;;;-3.30;99.90;;;;;;5083993;28;20033;-85
2022/01/15 03:01:25;;;;;;;57.00;30.05;;;-3.30;99.90;;;;;;5073949;28;20059;-83
2022/01/15 03:03:51;;;;;;;63.88;30.73;;;-3.40;99.90;;;;;;5072984;28;20484;-75
2022/01/15 03:06:18;;;;;;;53.33;29.23;;;-3.30;99.90;;;;;;5073620;28;20381;-83
2022/01/15 03:08:46;;;;;;;57.42;28.10;;;-3.10;99.90;;;;;;5079619;28;20052;-84
2022/01/15 03:11:12;;;;;;;56.05;28.08;;;-3.30;99.90;;;;;;5095767;28;20023;-85
2022/01/15 03:13:39;;;;;;;58.67;27.73;;;-3.30;99.90;;;;;;5093602;28;20024;-85
2022/01/15 03:16:07;;;;;;;54.45;28.33;;;-3.30;99.90;;;;;;5074974;28;20111;-85
2022/01/15 03:18:33;;;;;;;50.70;26.20;;;-3.20;99.90;;;;;;5073133;28;20074;-82
2022/01/15 03:20:59;;;;;;;54.47;29.20;;;-3.10;99.90;;;;;;5074228;28;20111;-85
2022/01/15 03:23:24;;;;;;;59.33;29.85;;;-3.10;99.90;;;;;;5078203;28;20024;-85
2022/01/15 03:25:50;;;;;;;55.45;29.20;;;-3.10;99.90;;;;;;5092909;28;20426;-85
2022/01/15 03:28:16;;;;;;;57.33;28.23;;;-3.00;99.90;;;;;;5092986;28;20082;-84
2022/01/15 03:30:42;;;;;;;53.13;27.67;;;-3.00;99.90;;;;;;5073157;28;20032;-85
2022/01/15 03:33:08;;;;;;;58.42;28.92;;;-3.00;99.90;;;;;;5074648;28;20477;-85
2022/01/15 03:35:34;;;;;;;54.55;27.98;;;-3.00;99.90;;;;;;5088485;28;20078;-81
2022/01/15 03:38:00;;;;;;;49.63;25.52;;;-3.10;99.90;;;;;;5091626;28;20439;-84
2022/01/15 03:40:26;;;;;;;49.50;25.70;;;-3.10;99.90;;;;;;5081689;28;20064;-83
2022/01/15 03:42:52;;;;;;;59.20;29.15;;;-3.10;99.90;;;;;;5072628;28;20032;-84
2022/01/15 03:45:17;;;;;;;58.85;27.63;;;-3.20;99.90;;;;;;5085318;28;20417;-84
2022/01/15 03:47:45;;;;;;;50.88;27.20;;;-3.20;99.90;;;;;;5093062;28;20023;-83
2022/01/15 03:50:11;;;;;;;51.47;25.88;;;-3.20;99.90;;;;;;5076255;28;20059;-83
2022/01/15 03:52:38;;;;;;;56.65;27.30;;;-3.20;99.90;;;;;;5072548;28;20477;-83
2022/01/15 03:55:08;;;;;;;59.05;29.48;;;-3.30;99.90;;;;;;5074723;28;20036;-83
2022/01/15 03:57:34;;;;;;;51.92;27.17;;;-3.30;99.90;;;;;;5076867;28;20119;-74
2022/01/15 04:00:01;;;;;;;54.03;27.52;;;-3.30;99.90;;;;;;5099320;28;20076;-81
2022/01/15 04:02:28;;;;;;;56.75;29.73;;;-3.30;99.90;;;;;;5104734;28;20020;-84
2022/01/15 04:04:53;;;;;;;52.95;26.95;;;-3.30;99.90;;;;;;5095695;28;20816;-85
2022/01/15 04:07:19;;;;;;;56.38;28.10;;;-3.30;99.90;;;;;;5091546;28;20024;-85
2022/01/15 04:09:45;;;;;;;63.42;30.50;;;-3.40;99.90;;;;;;5098755;28;20031;-85
2022/01/15 04:12:10;;;;;;;62.33;32.13;;;-3.40;99.90;;;;;;5104977;28;20036;-86
2022/01/15 04:14:36;;;;;;;60.58;31.52;;;-3.40;99.90;;;;;;5098415;28;20534;-84
2022/01/15 04:17:02;;;;;;;53.78;26.20;;;-3.40;99.90;;;;;;5078532;28;20033;-86
2022/01/15 04:19:29;;;;;;;68.90;30.83;;;-3.40;99.90;;;;;;5063265;28;20388;-85
2022/01/15 04:21:55;;;;;;;54.90;28.38;;;-3.40;99.90;;;;;;5091996;28;20101;-86
2022/01/15 04:24:20;;;;;;;62.15;29.73;;;-3.40;99.90;;;;;;5088527;28;20477;-86
2022/01/15 04:26:47;;;;;;;63.38;31.98;;;-3.50;99.90;;;;;;5071966;28;20026;-86
2022/01/15 04:29:15;;;;;;;66.78;32.88;;;-3.40;99.90;;;;;;5072921;28;20028;-86
2022/01/15 04:31:48;;;;;;;57.17;29.85;;;-3.50;99.90;;;;;;5071837;28;20045;-87
2022/01/15 04:34:20;;;;;;;64.15;31.92;;;-3.50;99.90;;;;;;5072905;28;20098;-86
2022/01/15 04:36:47;;;;;;;63.97;31.02;;;-3.50;99.90;;;;;;5072204;28;20024;-86
2022/01/15 04:39:13;;;;;;;63.25;31.35;;;-3.50;99.90;;;;;;5084195;28;20035;-86
2022/01/15 04:41:39;;;;;;;63.17;31.38;;;-3.50;99.90;;;;;;5093019;28;20070;-85
2022/01/15 04:44:06;;;;;;;64.45;30.23;;;-3.60;99.90;;;;;;5093014;28;20457;-85
2022/01/15 04:46:36;;;;;;;70.85;30.83;;;-3.60;99.90;;;;;;5092275;28;20032;-74
2022/01/15 04:49:03;;;;;;;59.28;29.40;;;-3.50;99.90;;;;;;5082709;28;20053;-85
2022/01/15 04:51:28;;;;;;;63.70;30.27;;;-3.60;99.90;;;;;;5072410;28;20021;-85
2022/01/15 04:53:54;;;;;;;60.28;29.70;;;-3.70;99.90;;;;;;5075980;28;20100;-84
2022/01/15 04:56:20;;;;;;;57.28;29.20;;;-3.70;99.90;;;;;;5081679;28;20115;-83
2022/01/15 04:58:46;;;;;;;71.90;33.53;;;-3.70;99.90;;;;;;5087037;28;20476;-85
2022/01/15 05:01:11;;;;;;;59.28;31.13;;;-3.60;99.90;;;;;;5072519;28;20039;-85
2022/01/15 05:03:37;;;;;;;62.28;30.63;;;-3.60;99.90;;;;;;5076476;28;20032;-84
2022/01/15 05:06:03;;;;;;;67.03;31.00;;;-3.60;99.90;;;;;;5092490;28;20020;-85
2022/01/15 05:08:28;;;;;;;62.55;31.95;;;-3.60;99.90;;;;;;5092466;28;20024;-84
2022/01/15 05:10:58;;;;;;;62.47;31.30;;;-3.60;99.90;;;;;;5071760;28;20039;-84
2022/01/15 05:13:28;;;;;;;60.20;30.23;;;-3.60;99.90;;;;;;5072118;28;20527;-84
2022/01/15 05:15:53;;;;;;;63.00;30.13;;;-3.60;99.90;;;;;;5071172;28;20064;-85
2022/01/15 05:18:19;;;;;;;58.40;31.60;;;-3.60;99.90;;;;;;5079364;28;20081;-84
2022/01/15 05:20:45;;;;;;;63.05;30.75;;;-3.70;99.90;;;;;;5053126;28;20115;-84
2022/01/15 05:23:11;;;;;;;61.30;30.10;;;-3.70;99.90;;;;;;5073267;28;20094;-85
2022/01/15 05:25:37;;;;;;;63.10;30.55;;;-3.70;99.90;;;;;;5091198;28;20112;-80
2022/01/15 05:28:03;;;;;;;63.65;31.05;;;-3.70;99.90;;;;;;5092258;28;20099;-85
2022/01/15 05:30:31;;;;;;;61.13;30.40;;;-3.80;99.90;;;;;;5071976;28;20086;-84
2022/01/15 05:32:58;;;;;;;70.78;32.65;;;-3.80;99.90;;;;;;5053362;28;20024;-85
2022/01/15 05:35:26;;;;;;;74.07;31.92;;;-3.80;99.90;;;;;;5071905;28;20037;-85
2022/01/15 05:37:55;;;;;;;64.63;31.20;;;-3.80;99.90;;;;;;5070726;28;20500;-85
2022/01/15 05:40:22;;;;;;;75.55;34.03;;;-3.80;99.90;;;;;;5089698;28;20054;-85
2022/01/15 05:42:47;;;;;;;63.30;30.10;;;-3.80;99.90;;;;;;5090546;28;20370;-85
2022/01/15 05:45:14;;;;;;;61.60;30.25;;;-3.80;99.90;;;;;;5071122;28;20029;-85
2022/01/15 05:47:40;;;;;;;60.72;29.63;;;-3.90;99.90;;;;;;5077703;28;20032;-80
2022/01/15 05:50:07;;;;;;;67.85;32.20;;;-3.80;99.90;;;;;;5057538;28;20422;-86
2022/01/15 05:52:33;;;;;;;66.07;32.75;;;-3.80;99.90;;;;;;5071703;28;20107;-86
2022/01/15 05:54:59;;;;;;;62.25;32.75;;;-3.80;99.90;;;;;;5070786;28;20124;-85
2022/01/15 05:57:24;;;;;;;65.55;32.35;;;-3.90;99.90;;;;;;5071648;28;20025;-86
2022/01/15 05:59:52;;;;;;;66.43;31.95;;;-3.90;99.90;;;;;;5081889;28;20050;-87
2022/01/15 06:02:19;;;;;;;60.85;29.17;;;-3.90;99.90;;;;;;5093056;28;20028;-85
2022/01/15 06:04:45;;;;;;;65.25;31.60;;;-3.90;99.90;;;;;;5073984;28;20056;-82
2022/01/15 06:07:11;;;;;;;67.05;30.55;;;-3.90;99.90;;;;;;5076913;28;20067;-85
2022/01/15 06:09:36;;;;;;;63.53;32.08;;;-3.90;99.90;;;;;;5082482;28;20035;-75
2022/01/15 06:12:02;;;;;;;60.78;28.73;;;-3.90;99.90;;;;;;5071314;28;20021;-79
2022/01/15 06:14:30;;;;;;;63.35;31.15;;;-4.00;99.90;;;;;;5071439;28;20036;-81
2022/01/15 06:16:56;;;;;;;60.00;29.58;;;-4.00;99.90;;;;;;5084741;28;20020;-73
2022/01/15 06:19:22;;;;;;;64.03;28.88;;;-4.00;99.90;;;;;;5085774;28;20035;-82
2022/01/15 06:21:48;;;;;;;62.78;30.40;;;-4.10;99.90;;;;;;5088509;28;20024;-81
2022/01/15 06:24:13;;;;;;;61.47;30.38;;;-4.10;99.90;;;;;;5089473;28;20094;-88
2022/01/15 06:26:39;;;;;;;61.25;30.33;;;-4.10;99.90;;;;;;5089219;28;20020;-77
2022/01/15 06:29:05;;;;;;;73.03;32.85;;;-4.10;99.90;;;;;;5090119;28;20035;-78
2022/01/15 06:31:31;;;;;;;72.07;33.53;;;-4.10;99.90;;;;;;5093780;28;20469;-85
2022/01/15 06:33:58;;;;;;;61.38;30.50;;;-4.00;99.90;;;;;;5103039;28;20028;-81
2022/01/15 06:36:23;;;;;;;60.85;31.52;;;-4.10;99.90;;;;;;5102637;28;20028;-82
2022/01/15 06:38:49;;;;;;;70.55;31.50;;;-4.10;99.90;;;;;;5087857;28;20020;-83
2022/01/15 06:41:15;;;;;;;72.35;32.42;;;-4.10;99.90;;;;;;5085623;28;20036;-81
2022/01/15 06:43:41;;;;;;;65.65;30.70;;;-4.10;99.90;;;;;;5086755;28;20032;-83
2022/01/15 06:46:06;;;;;;;67.00;30.95;;;-4.10;99.90;;;;;;5091987;28;20043;-80
2022/01/15 06:48:32;;;;;;;63.03;30.90;;;-4.10;99.90;;;;;;5090970;28;20045;-80
2022/01/15 06:50:58;;;;;;;67.20;32.05;;;-4.20;99.90;;;;;;5089723;28;20546;-81
2022/01/15 06:53:24;;;;;;;71.35;31.63;;;-4.20;99.90;;;;;;5093979;28;20024;-81
2022/01/15 06:55:52;;;;;;;63.65;32.00;;;-4.20;99.90;;;;;;5092739;28;20036;-81
2022/01/15 06:58:19;;;;;;;58.20;30.23;;;-4.20;99.90;;;;;;5092008;28;20093;-81
2022/01/15 07:00:45;;;;;;;59.92;30.58;;;-4.20;99.90;;;;;;5074901;28;20036;-79
2022/01/15 07:03:10;;;;;;;67.57;31.80;;;-4.20;99.90;;;;;;5093316;28;20169;-82
2022/01/15 07:05:36;;;;;;;62.15;30.65;;;-4.20;99.90;;;;;;5092921;28;20095;-74
2022/01/15 07:08:02;;;;;;;65.78;30.88;;;-4.20;99.90;;;;;;5091506;28;20524;-79
2022/01/15 07:10:28;;;;;;;63.67;30.48;;;-4.20;99.90;;;;;;5093525;28;20031;-83
2022/01/15 07:12:54;;;;;;;67.47;31.25;;;-4.20;99.90;;;;;;5093763;28;20461;-82
2022/01/15 07:15:20;;;;;;;65.53;31.08;;;-4.20;99.90;;;;;;5094199;28;20473;-83
2022/01/15 07:17:47;;;;;;;63.67;31.88;;;-4.20;99.90;;;;;;5091734;28;20024;-85
2022/01/15 07:20:15;;;;;;;68.43;33.22;;;-4.20;99.90;;;;;;5094910;28;20376;-83
2022/01/15 07:22:41;;;;;;;69.55;33.10;;;-4.20;99.90;;;;;;5074563;28;20123;-83
2022/01/15 07:25:08;;;;;;;66.22;31.35;;;-4.20;99.90;;;;;;5091946;28;20367;-81
2022/01/15 07:27:33;;;;;;;67.65;31.80;;;-4.20;99.90;;;;;;5093100;28;20024;-83
2022/01/15 07:30:01;;;;;;;66.90;33.90;;;-4.10;99.90;;;;;;5091799;28;20100;-79
2022/01/15 07:32:26;;;;;;;70.30;33.35;;;-4.00;99.90;;;;;;5092772;28;20027;-78
2022/01/15 07:34:52;;;;;;;65.32;32.47;;;-3.90;99.90;;;;;;5088073;28;20023;-80
2022/01/15 07:37:18;;;;;;;66.50;33.67;;;-3.90;99.90;;;;;;5086810;28;20489;-82
2022/01/15 07:39:44;;;;;;;69.72;34.78;;;-3.90;99.90;;;;;;5090286;28;20032;-77
2022/01/15 07:42:10;;;;;;;70.97;35.97;;;-3.90;99.90;;;;;;5090007;28;20407;-77
2022/01/15 07:44:36;;;;;;;71.15;33.53;;;-3.80;99.90;;;;;;5090933;28;20035;-71
2022/01/15 07:47:02;;;;;;;65.15;33.17;;;-3.80;99.90;;;;;;5091086;28;20065;-77
2022/01/15 07:49:28;;;;;;;60.95;31.15;;;-3.80;99.90;;;;;;5069391;28;20512;-77
2022/01/15 07:51:53;;;;;;;62.10;32.08;;;-3.80;99.90;;;;;;5071542;28;20461;-78
2022/01/15 07:54:19;;;;;;;61.63;31.63;;;-3.80;99.90;;;;;;5071301;28;20032;-78
2022/01/15 07:56:45;;;;;;;68.13;33.85;;;-3.80;99.90;;;;;;5070601;28;20481;-81
2022/01/15 07:59:11;;;;;;;69.68;33.40;;;-3.80;99.90;;;;;;5071869;28;20078;-82
2022/01/15 08:01:36;;;;;;;62.63;31.10;;;-3.70;99.90;;;;;;5071862;28;20441;-73
2022/01/15 08:04:03;;;;;;;62.60;30.52;;;-3.80;99.90;;;;;;5065347;28;20033;-81
2022/01/15 08:06:29;;;;;;;68.70;33.05;;;-3.80;99.90;;;;;;5067120;28;20043;-79
2022/01/15 08:08:55;;;;;;;63.10;34.47;;;-3.70;99.90;;;;;;5071013;28;20020;-82
2022/01/15 08:11:21;;;;;;;73.40;34.72;;;-3.70;99.90;;;;;;5071834;28;20470;-82
2022/01/15 08:13:46;;;;;;;67.03;33.25;;;-3.60;99.90;;;;;;5071513;28;20457;-84
2022/01/15 08:16:12;;;;;;;66.95;33.10;;;-3.60;99.90;;;;;;5071904;28;20028;-79
2022/01/15 08:18:38;;;;;;;59.05;31.98;;;-3.60;99.90;;;;;;5066276;28;20027;-71
2022/01/15 08:21:05;;;;;;;64.82;33.08;;;-3.50;99.90;;;;;;5070953;28;20086;-82
2022/01/15 08:23:31;;;;;;;58.42;32.00;;;-3.50;99.90;;;;;;5067982;28;20043;-83
2022/01/15 08:25:58;;;;;;;53.95;30.35;;;-3.40;99.90;;;;;;5070097;28;20016;-81
2022/01/15 08:28:25;;;;;;;63.47;33.33;;;-3.40;99.90;;;;;;5071171;28;20028;-81
2022/01/15 08:30:50;;;;;;;72.72;34.45;;;-3.30;99.90;;;;;;5061188;28;20029;-83
2022/01/15 08:33:16;;;;;;;65.45;35.70;;;-3.20;99.90;;;;;;5067686;28;20051;-82
2022/01/15 08:35:42;;;;;;;72.05;35.75;;;-3.10;99.90;;;;;;5067177;28;20049;-79
2022/01/15 08:38:08;;;;;;;59.35;31.48;;;-3.00;99.90;;;;;;5070041;28;20028;-83
2022/01/15 08:40:34;;;;;;;64.35;34.08;;;-2.80;99.90;;;;;;5071472;28;20086;-85
2022/01/15 08:43:01;;;;;;;67.68;34.22;;;-2.80;99.90;;;;;;5070656;28;20016;-82
2022/01/15 08:45:28;;;;;;;59.42;31.35;;;-2.70;99.90;;;;;;5070373;28;20098;-79
2022/01/15 08:47:55;;;;;;;56.63;33.08;;;-2.60;99.90;;;;;;5068804;28;20111;-78
2022/01/15 08:50:22;;;;;;;59.05;31.92;;;-2.60;99.90;;;;;;5091078;28;20660;-76
2022/01/15 08:52:48;;;;;;;52.15;31.77;;;-2.50;99.90;;;;;;5090398;28;20107;-79
2022/01/15 08:55:14;;;;;;;58.30;29.08;;;-2.40;99.90;;;;;;5089986;28;20111;-76
2022/01/15 08:57:42;;;;;;;49.38;26.75;;;-2.30;99.90;;;;;;5088716;28;20036;-75
2022/01/15 09:00:12;;;;;;;44.83;25.70;;;-2.20;99.90;;;;;;5073052;28;20027;-67
2022/01/15 09:02:37;;;;;;;;;;;-2.10;99.90;;;;;;5091613;28;20020;-67
2022/01/15 09:05:04;;;;;;;43.90;24.95;;;-2.00;99.90;;;;;;5089193;28;20006;-67
2022/01/15 09:07:29;;;;;;;43.95;24.77;;;-2.00;99.90;;;;;;5090178;28;20028;-65
2022/01/15 09:09:55;;;;;;;43.63;24.70;;;-1.90;99.90;;;;;;5089905;28;20181;-66
2022/01/15 09:12:22;;;;;;;44.22;23.50;;;-1.80;99.90;;;;;;5090508;28;20065;-65
2022/01/15 09:14:52;;;;;;;44.97;25.00;;;-1.80;99.90;;;;;;5088464;28;20054;-65
2022/01/15 09:17:18;;;;;;;38.60;22.85;;;-1.70;99.90;;;;;;5085650;28;20060;-68
2022/01/15 09:19:44;;;;;;;44.33;23.92;;;-1.70;99.90;;;;;;5070808;28;20088;-66
2022/01/15 09:22:11;;;;;;;42.17;24.05;;;-1.70;99.90;;;;;;5089736;28;20504;-65
2022/01/15 09:24:37;;;;;;;40.65;24.48;;;-1.70;99.90;;;;;;5087751;28;20024;-67
2022/01/15 09:30:12;;;;;;;43.22;24.15;;;-1.60;99.90;;;;;;5089548;28;20059;-69
2022/01/15 09:32:34;;;;;;;44.40;25.95;;;-1.50;99.90;;;;;;5088287;28;20088;-68
2022/01/15 09:34:59;;;;;;;42.08;24.98;;;-1.40;99.90;;;;;;5089661;28;20024;-68
2022/01/15 09:37:25;;;;;;;42.17;23.25;;;-1.30;99.90;;;;;;5088655;28;20051;-67
2022/01/15 09:39:50;;;;;;;42.22;24.13;;;-1.30;99.90;;;;;;5089159;28;20028;-66
2022/01/15 09:42:16;;;;;;;43.47;23.77;;;-1.20;99.90;;;;;;5088765;28;20031;-68
2022/01/15 09:44:43;;;;;;;40.95;24.10;;;-1.00;99.90;;;;;;5089261;28;20032;-67
2022/01/15 09:47:11;;;;;;;40.72;24.55;;;-1.00;99.90;;;;;;5087785;28;20457;-68
2022/01/15 09:49:40;;;;;;;43.50;25.42;;;-1.00;99.90;;;;;;5089406;28;20063;-69
2022/01/15 09:52:06;;;;;;;43.15;24.73;;;-1.00;99.90;;;;;;5090503;28;20051;-68
2022/01/15 09:54:33;;;;;;;48.72;27.25;;;-0.90;99.90;;;;;;5090061;28;20020;-67
2022/01/15 09:56:58;;;;;;;47.50;26.67;;;-0.90;99.90;;;;;;5088894;28;20020;-69
2022/01/15 09:59:24;;;;;;;41.60;24.38;;;-0.70;99.90;;;;;;5090481;28;20039;-68
2022/01/15 10:01:50;;;;;;;46.22;24.05;;;-0.70;99.90;;;;;;5090715;28;20020;-67
2022/01/15 10:04:15;;;;;;;35.95;21.75;;;-0.60;99.90;;;;;;5091349;28;20103;-70
2022/01/15 10:07:17;;;;;;;40.22;22.05;;;-0.60;99.90;;;;;;5089974;28;20484;-67
2022/01/15 10:09:43;;;;;;;39.58;22.58;;;-0.50;99.90;;;;;;5070475;28;20028;-67
2022/01/15 10:12:11;;;;;;;37.83;22.77;;;-0.50;99.90;;;;;;5071075;28;20040;-69
2022/01/15 10:14:40;;;;;;;38.30;24.45;;;-0.40;99.90;;;;;;5071249;28;20036;-70
2022/01/15 10:17:30;;;;;;;37.63;22.40;;;-0.40;99.90;;;;;;5085745;28;20504;-71
2022/01/15 10:19:59;;;;;;;36.00;21.95;;;-0.40;99.90;;;;;;5055232;28;20119;-69
2022/01/15 10:22:28;;;;;;;40.72;22.70;;;-0.40;99.90;;;;;;5053342;28;20025;-68
2022/01/15 10:25:11;;;;;;;38.05;22.55;;;-0.30;99.90;;;;;;5086056;28;20473;-68
2022/01/15 10:27:39;;;;;;;34.95;20.90;;;-0.30;99.90;;;;;;5072898;28;20043;-69
2022/01/15 10:30:12;;;;;;;35.00;20.77;;;-0.10;99.90;;;;;;5073934;28;20039;-69
2022/01/15 10:32:40;;;;;;;32.72;21.45;;;-0.10;99.90;;;;;;5074222;28;20051;-68
2022/01/15 10:35:16;;;;;;;37.05;22.50;;;0.00;99.90;;;;;;5074320;28;20032;-68
2022/01/15 10:37:49;;;;;;;33.10;20.40;;;0.20;99.90;;;;;;5075587;28;20044;-66
2022/01/15 10:40:16;;;;;;;32.72;20.38;;;0.30;99.90;;;;;;5083779;28;20617;-66
2022/01/15 10:42:51;;;;;;;33.08;19.88;;;0.40;99.90;;;;;;5100561;28;20024;-72
2022/01/15 10:45:17;;;;;;;34.50;19.05;;;0.50;99.90;;;;;;5083649;28;20028;-67
2022/01/15 10:47:49;;;;;;;35.28;21.15;;;0.70;99.90;;;;;;5074751;28;20051;-67
2022/01/15 10:50:37;;;;;;;38.78;21.50;;;0.80;99.90;;;;;;5094304;28;20473;-67
2022/01/15 10:53:11;;;;;;;37.65;20.67;;;0.90;99.90;;;;;;5075291;28;20466;-67
2022/01/15 10:55:38;;;;;;;38.28;21.00;;;0.90;99.90;;;;;;5093764;28;20079;-68
2022/01/15 10:58:06;;;;;;;35.13;21.05;;;0.90;99.90;;;;;;5088281;28;20108;-68
2022/01/15 11:00:41;;;;;;;37.45;22.42;;;1.00;99.90;;;;;;5078426;28;20035;-68
2022/01/15 11:03:12;;;;;;;36.47;20.77;;;1.00;99.90;;;;;;5073800;28;20029;-66
2022/01/15 11:05:43;;;;;;;35.05;21.02;;;1.10;99.90;;;;;;5073740;28;20025;-67
2022/01/15 11:08:20;;;;;;;40.30;23.00;;;1.10;99.90;;;;;;5079022;28;20028;-67
2022/01/15 11:10:50;;;;;;;35.17;22.23;;;1.20;99.90;;;;;;5092871;28;20141;-66
2022/01/15 11:13:19;;;;;;;36.20;22.55;;;1.20;99.90;;;;;;5076755;28;20094;-67
2022/01/15 11:15:47;;;;;;;37.47;21.45;;;1.30;99.90;;;;;;5072729;28;20041;-66
2022/01/15 11:18:25;;;;;;;34.65;22.05;;;1.50;99.90;;;;;;5078259;28;20028;-67
2022/01/15 11:20:53;;;;;;;37.25;21.90;;;1.50;99.90;;;;;;5092681;28;20093;-67
2022/01/15 11:23:21;;;;;;;31.15;20.05;;;1.50;99.90;;;;;;5093646;28;20032;-68
2022/01/15 11:25:49;;;;;;;36.25;22.02;;;1.50;99.90;;;;;;5092616;28;20411;-67
2022/01/15 11:28:17;;;;;;;38.35;22.70;;;1.60;99.90;;;;;;5092774;28;20380;-68
2022/01/15 11:30:44;;;;;;;35.40;22.33;;;1.70;99.90;;;;;;5092687;28;20032;-67
2022/01/15 11:33:12;;;;;;;33.45;21.20;;;1.70;99.90;;;;;;5093119;28;20047;-68
2022/01/15 11:35:45;;;;;;;34.03;21.45;;;1.80;99.90;;;;;;5093571;28;20085;-68
2022/01/15 11:38:31;;;;;;;39.88;22.10;;;1.90;99.90;;;;;;5087981;28;20481;-68
2022/01/15 11:40:57;;;;;;;33.83;20.95;;;1.90;99.90;;;;;;5078001;28;20031;-67
2022/01/15 11:43:26;;;;;;;32.70;21.00;;;2.00;99.90;;;;;;5093498;28;20032;-68
2022/01/15 11:45:52;;;;;;;36.47;20.23;;;2.00;99.90;;;;;;5092286;28;20024;-68
2022/01/15 11:48:24;;;;;;;34.80;22.42;;;2.00;99.90;;;;;;5092367;28;20044;-68
2022/01/15 11:51:15;;;;;;;34.58;21.77;;;2.10;99.90;;;;;;5092193;28;20032;-68
2022/01/15 11:53:47;;;;;;;30.40;19.98;;;2.10;99.90;;;;;;5093151;28;20457;-68
2022/01/15 11:56:17;;;;;;;34.65;20.58;;;2.10;99.90;;;;;;5086688;28;20031;-68
2022/01/15 11:58:43;;;;;;;35.08;21.98;;;2.30;99.90;;;;;;5081944;28;20036;-68
2022/01/15 12:01:39;;;;;;;33.30;21.58;;;2.30;99.90;;;;;;5092691;28;20075;-68
2022/01/15 12:04:27;;;;;;;35.85;20.70;;;2.20;99.90;;;;;;5081381;28;20059;-68
2022/01/15 12:07:07;;;;;;;32.50;20.75;;;2.20;99.90;;;;;;5085632;28;20085;-68
2022/01/15 12:09:39;;;;;;;35.45;21.42;;;2.20;99.90;;;;;;5057551;28;20032;-68
2022/01/15 12:12:17;;;;;;;35.72;21.38;;;2.20;99.90;;;;;;5086898;28;20032;-68
2022/01/15 12:14:57;;;;;;;33.63;20.83;;;2.30;99.90;;;;;;5092438;28;20035;-68
2022/01/15 12:17:27;;;;;;;34.03;20.83;;;2.30;99.90;;;;;;5074860;28;20035;-68
2022/01/15 12:19:54;;;;;;;31.88;20.77;;;2.40;99.90;;;;;;5090720;28;20036;-68
2022/01/15 12:22:39;;;;;;;31.92;20.10;;;2.40;99.90;;;;;;5092464;28;20050;-69
2022/01/15 12:25:11;;;;;;;32.55;20.83;;;2.40;99.90;;;;;;5073771;28;20611;-68
2022/01/15 12:27:37;;;;;;;34.20;22.50;;;;;;;;;;5089223;28;20466;-67
2022/01/15 12:30:06;;;;;;;38.45;21.95;;;;;;;;;;5071713;28;20024;-69
2022/01/15 12:32:41;;;;;;;34.60;22.02;;;2.80;99.90;;;;;;5072118;28;20115;-67
2022/01/15 12:35:16;;;;;;;33.67;21.80;;;2.80;99.90;;;;;;5085855;28;20028;-68
2022/01/15 12:37:59;;;;;;;33.58;22.33;;;2.80;99.90;;;;;;5089816;28;20135;-68
2022/01/15 12:40:32;;;;;;;36.63;20.40;;;2.80;99.90;;;;;;5072849;28;20028;-68
2022/01/15 12:43:05;;;;;;;34.15;20.73;;;2.90;99.90;;;;;;5070948;28;20418;-68
2022/01/15 12:45:32;;;;;;;33.33;20.70;;;3.00;99.90;;;;;;5053903;28;20115;-68
2022/01/15 12:47:58;;;;;;;36.20;21.30;;;2.90;99.90;;;;;;5084085;28;20146;-69
2022/01/15 12:50:24;;;;;;;34.22;20.33;;;3.00;99.90;;;;;;5091972;28;20056;-67
2022/01/15 12:53:04;;;;;;;34.35;21.55;;;3.00;99.90;;;;;;5091219;28;20074;-67
2022/01/15 12:55:35;;;;;;;38.93;21.63;;;3.10;99.90;;;;;;5092178;28;20032;-71
2022/01/15 12:58:02;;;;;;;34.92;21.13;;;3.10;99.90;;;;;;5090215;28;20465;-67